sensor_id;sensor_type;location;lat;lon;timestamp;pressure;altitude;pressure_sealevel;temperature;humidity
72414;BME280;60995;52.154;4.498;2023-03-26T00:01:46;100635.06;;;9.56;78.05
72414;BME280;60995;52.154;4.498;2023-03-26T00:04:05;100628.47;;;9.49;78.53
72414;BME280;60995;52.154;4.498;2023-03-26T00:06:25;100633.16;;;9.47;79.00
72414;BME280;60995;52.154;4.498;2023-03-26T00:08:44;100638.22;;;9.61;79.72
72414;BME280;60995;52.154;4.498;2023-03-26T00:11:01;100636.78;;;9.57;79.65
72414;BME280;60995;52.154;4.498;2023-03-26T00:13:18;100629.91;;;9.53;80.03
72414;BME280;60995;52.154;4.498;2023-03-26T00:15:35;100634.38;;;9.64;79.81
72414;BME280;60995;52.154;4.498;2023-03-26T00:17:52;100633.09;;;9.68;79.90
72414;BME280;60995;52.154;4.498;2023-03-26T00:20:09;100631.69;;;9.73;79.68
72414;BME280;60995;52.154;4.498;2023-03-26T00:22:25;100630.69;;;9.74;79.51
72414;BME280;60995;52.154;4.498;2023-03-26T00:24:42;100618.88;;;9.75;80.15
72414;BME280;60995;52.154;4.498;2023-03-26T00:27:00;100616.41;;;9.72;79.81
72414;BME280;60995;52.154;4.498;2023-03-26T00:29:17;100610.31;;;9.80;nan
72414;BME280;60995;52.154;4.498;2023-03-26T00:31:33;100607.94;;;9.87;79.21
72414;BME280;60995;52.154;4.498;2023-03-26T00:33:52;100596.38;;;9.85;79.12
72414;BME280;60995;52.154;4.498;2023-03-26T00:36:13;100599.22;;;9.83;79.18
72414;BME280;60995;52.154;4.498;2023-03-26T00:38:32;100595.25;;;9.97;79.53
72414;BME280;60995;52.154;4.498;2023-03-26T00:40:53;100590.41;;;9.91;78.83
72414;BME280;60995;52.154;4.498;2023-03-26T00:43:11;100599.22;;;9.93;79.08
72414;BME280;60995;52.154;4.498;2023-03-26T00:45:34;100602.38;;;9.98;78.71
72414;BME280;60995;52.154;4.498;2023-03-26T00:47:50;100596.56;;;10.03;78.59
72414;BME280;60995;52.154;4.498;2023-03-26T00:50:07;100587.00;;;10.08;78.58
72414;BME280;60995;52.154;4.498;2023-03-26T00:52:30;100591.41;;;10.09;78.48
72414;BME280;60995;52.154;4.498;2023-03-26T00:54:47;100587.84;;;9.99;78.47
72414;BME280;60995;52.154;4.498;2023-03-26T00:57:06;100579.28;;;9.94;78.94
72414;BME280;60995;52.154;4.498;2023-03-26T00:59:25;100567.59;;;9.93;78.52
72414;BME280;60995;52.154;4.498;2023-03-26T01:01:45;100570.84;;;9.87;78.63
72414;BME280;60995;52.154;4.498;2023-03-26T01:04:28;100567.44;;;10.05;78.91
72414;BME280;60995;52.154;4.498;2023-03-26T01:06:46;100570.72;;;9.99;78.53
72414;BME280;60995;52.154;4.498;2023-03-26T01:09:15;100568.84;;;9.89;78.44
72414;BME280;60995;52.154;4.498;2023-03-26T01:11:34;100553.84;;;9.75;79.02
72414;BME280;60995;52.154;4.498;2023-03-26T01:13:54;100561.69;;;9.69;79.10
72414;BME280;60995;52.154;4.498;2023-03-26T01:16:39;100545.94;;;9.53;79.21
72414;BME280;60995;52.154;4.498;2023-03-26T01:19:00;100539.28;;;9.57;79.09
72414;BME280;60995;52.154;4.498;2023-03-26T01:21:22;100541.78;;;9.39;79.37
72414;BME280;60995;52.154;4.498;2023-03-26T01:26:29;100533.22;;;9.34;80.14
72414;BME280;60995;52.154;4.498;2023-03-26T01:29:16;100528.91;;;9.31;80.44
72414;BME280;60995;52.154;4.498;2023-03-26T01:31:53;100532.34;;;9.33;80.84
72414;BME280;60995;52.154;4.498;2023-03-26T01:37:38;100541.78;;;9.39;81.16
72414;BME280;60995;52.154;4.498;2023-03-26T01:43:05;100521.69;;;9.51;80.94
72414;BME280;60995;52.154;4.498;2023-03-26T01:45:33;100520.13;;;9.39;80.72
72414;BME280;60995;52.154;4.498;2023-03-26T01:47:53;100516.91;;;9.24;80.82
72414;BME280;60995;52.154;4.498;2023-03-26T01:50:11;100516.88;;;9.14;80.64
72414;BME280;60995;52.154;4.498;2023-03-26T01:52:28;100507.72;;;9.05;81.29
72414;BME280;60995;52.154;4.498;2023-03-26T01:54:44;100506.69;;;8.97;81.78
72414;BME280;60995;52.154;4.498;2023-03-26T02:00:10;100499.47;;;8.76;81.36
72414;BME280;60995;52.154;4.498;2023-03-26T02:05:15;100490.31;;;8.67;82.12
72414;BME280;60995;52.154;4.498;2023-03-26T02:07:41;100493.28;;;8.64;82.59
72414;BME280;60995;52.154;4.498;2023-03-26T02:12:49;100491.03;;;8.69;83.17
72414;BME280;60995;52.154;4.498;2023-03-26T02:15:06;100491.59;;;8.63;82.85
72414;BME280;60995;52.154;4.498;2023-03-26T02:17:23;100478.13;;;8.52;83.09
72414;BME280;60995;52.154;4.498;2023-03-26T02:19:40;100489.00;;;8.61;83.62
72414;BME280;60995;52.154;4.498;2023-03-26T02:21:57;100484.25;;;8.75;83.76
72414;BME280;60995;52.154;4.498;2023-03-26T02:24:16;100480.00;;;8.82;83.81
72414;BME280;60995;52.154;4.498;2023-03-26T02:26:34;100483.22;;;8.97;83.63
72414;BME280;60995;52.154;4.498;2023-03-26T02:28:52;100482.38;;;9.06;83.66
72414;BME280;60995;52.154;4.498;2023-03-26T02:31:08;100474.84;;;9.10;83.54
72414;BME280;60995;52.154;4.498;2023-03-26T02:33:26;100480.53;;;9.07;83.20
72414;BME280;60995;52.154;4.498;2023-03-26T02:35:43;100467.59;;;9.10;83.23
72414;BME280;60995;52.154;4.498;2023-03-26T02:38:00;100475.31;;;9.25;83.01
72414;BME280;60995;52.154;4.498;2023-03-26T02:40:17;100471.88;;;9.23;83.23
72414;BME280;60995;52.154;4.498;2023-03-26T02:42:36;100466.91;;;9.28;83.68
72414;BME280;60995;52.154;4.498;2023-03-26T02:44:53;100461.09;;;9.42;83.19
72414;BME280;60995;52.154;4.498;2023-03-26T02:47:09;100457.53;;;9.42;83.43
72414;BME280;60995;52.154;4.498;2023-03-26T02:49:25;100450.00;;;9.46;83.55
72414;BME280;60995;52.154;4.498;2023-03-26T02:51:42;100458.56;;;9.51;83.81
72414;BME280;60995;52.154;4.498;2023-03-26T02:53:58;100452.72;;;9.46;83.88
72414;BME280;60995;52.154;4.498;2023-03-26T02:56:15;100442.31;;;9.51;83.87
72414;BME280;60995;52.154;4.498;2023-03-26T02:58:32;100446.75;;;9.52;83.60
72414;BME280;60995;52.154;4.498;2023-03-26T03:00:48;100451.03;;;9.64;83.77
72414;BME280;60995;52.154;4.498;2023-03-26T03:03:05;100451.16;;;9.72;83.52
72414;BME280;60995;52.154;4.498;2023-03-26T03:05:23;100445.59;;;9.64;83.13
72414;BME280;60995;52.154;4.498;2023-03-26T03:07:41;100444.03;;;9.62;83.28
72414;BME280;60995;52.154;4.498;2023-03-26T03:09:57;100442.03;;;9.73;83.30
72414;BME280;60995;52.154;4.498;2023-03-26T03:12:17;100432.34;;;9.71;83.08
72414;BME280;60995;52.154;4.498;2023-03-26T03:14:34;100440.91;;;9.66;83.40
72414;BME280;60995;52.154;4.498;2023-03-26T03:16:50;100437.75;;;9.71;83.70
72414;BME280;60995;52.154;4.498;2023-03-26T03:19:08;100424.06;;;9.72;83.71
72414;BME280;60995;52.154;4.498;2023-03-26T03:21:26;100439.50;;;9.82;83.68
72414;BME280;60995;52.154;4.498;2023-03-26T03:23:44;100434.06;;;9.82;83.32
72414;BME280;60995;52.154;4.498;2023-03-26T03:26:00;100432.75;;;9.96;83.32
72414;BME280;60995;52.154;4.498;2023-03-26T03:28:17;100422.94;;;10.04;82.66
72414;BME280;60995;52.154;4.498;2023-03-26T03:30:34;100427.78;;;9.91;83.37
72414;BME280;60995;52.154;4.498;2023-03-26T03:32:50;100425.78;;;10.03;83.06
72414;BME280;60995;52.154;4.498;2023-03-26T03:35:07;100424.19;;;10.10;82.83
72414;BME280;60995;52.154;4.498;2023-03-26T03:37:24;100418.88;;;10.28;82.62
72414;BME280;60995;52.154;4.498;2023-03-26T03:39:41;100413.34;;;10.10;81.53
72414;BME280;60995;52.154;4.498;2023-03-26T03:41:58;100405.22;;;10.10;82.18
72414;BME280;60995;52.154;4.498;2023-03-26T03:44:17;100407.50;;;10.15;82.72
72414;BME280;60995;52.154;4.498;2023-03-26T03:46:33;100398.91;;;10.19;81.95
72414;BME280;60995;52.154;4.498;2023-03-26T03:48:49;100399.09;;;10.08;81.61
72414;BME280;60995;52.154;4.498;2023-03-26T03:51:06;100397.53;;;10.05;82.28
72414;BME280;60995;52.154;4.498;2023-03-26T03:53:23;100387.25;;;9.99;82.26
72414;BME280;60995;52.154;4.498;2023-03-26T03:55:41;100388.84;;;10.02;82.71
72414;BME280;60995;52.154;4.498;2023-03-26T03:57:58;100381.25;;;10.15;82.56
72414;BME280;60995;52.154;4.498;2023-03-26T04:00:15;100383.00;;;10.06;82.28
72414;BME280;60995;52.154;4.498;2023-03-26T04:02:31;100385.09;;;10.13;82.60
72414;BME280;60995;52.154;4.498;2023-03-26T04:04:49;100388.22;;;10.18;81.89
72414;BME280;60995;52.154;4.498;2023-03-26T04:07:05;100380.81;;;10.20;82.14
72414;BME280;60995;52.154;4.498;2023-03-26T04:09:22;100373.19;;;10.33;81.91
72414;BME280;60995;52.154;4.498;2023-03-26T04:11:38;100375.81;;;10.25;81.80
72414;BME280;60995;52.154;4.498;2023-03-26T04:13:54;100368.38;;;10.27;81.98
72414;BME280;60995;52.154;4.498;2023-03-26T04:16:11;100368.81;;;10.22;81.42
72414;BME280;60995;52.154;4.498;2023-03-26T04:18:27;100363.25;;;10.14;81.58
72414;BME280;60995;52.154;4.498;2023-03-26T04:20:45;100354.38;;;10.22;82.07
72414;BME280;60995;52.154;4.498;2023-03-26T04:23:01;100355.69;;;10.18;81.64
72414;BME280;60995;52.154;4.498;2023-03-26T04:25:19;100341.28;;;10.17;82.10
72414;BME280;60995;52.154;4.498;2023-03-26T04:27:36;100345.00;;;10.16;81.51
72414;BME280;60995;52.154;4.498;2023-03-26T04:29:53;100342.13;;;10.18;82.00
72414;BME280;60995;52.154;4.498;2023-03-26T04:32:25;100341.91;;;10.01;81.77
72414;BME280;60995;52.154;4.498;2023-03-26T04:34:49;100331.88;;;10.12;82.21
72414;BME280;60995;52.154;4.498;2023-03-26T04:37:05;100314.50;;;10.04;82.35
72414;BME280;60995;52.154;4.498;2023-03-26T04:39:21;100316.06;;;10.07;82.09
72414;BME280;60995;52.154;4.498;2023-03-26T04:41:39;100322.75;;;10.13;82.04
72414;BME280;60995;52.154;4.498;2023-03-26T04:43:55;100315.50;;;10.03;82.45
72414;BME280;60995;52.154;4.498;2023-03-26T04:46:18;100317.38;;;9.93;82.58
72414;BME280;60995;52.154;4.498;2023-03-26T04:48:38;100312.94;;;9.92;82.68
72414;BME280;60995;52.154;4.498;2023-03-26T04:50:55;100312.34;;;10.08;82.64
72414;BME280;60995;52.154;4.498;2023-03-26T04:53:15;100304.25;;;9.98;82.63
72414;BME280;60995;52.154;4.498;2023-03-26T04:55:40;100301.94;;;10.03;82.69
72414;BME280;60995;52.154;4.498;2023-03-26T04:58:01;100305.13;;;10.36;81.55
72414;BME280;60995;52.154;4.498;2023-03-26T05:00:20;100293.31;;;10.27;80.54
72414;BME280;60995;52.154;4.498;2023-03-26T05:02:37;100296.00;;;10.37;80.09
72414;BME280;60995;52.154;4.498;2023-03-26T05:04:54;100293.44;;;10.36;80.17
72414;BME280;60995;52.154;4.498;2023-03-26T05:07:16;100291.22;;;10.12;80.90
72414;BME280;60995;52.154;4.498;2023-03-26T05:09:35;100289.94;;;10.16;81.04
72414;BME280;60995;52.154;4.498;2023-03-26T05:11:51;100282.97;;;10.03;81.86
72414;BME280;60995;52.154;4.498;2023-03-26T05:14:08;100279.56;;;10.01;82.30
72414;BME280;60995;52.154;4.498;2023-03-26T05:16:24;100282.13;;;10.03;82.16
72414;BME280;60995;52.154;4.498;2023-03-26T05:18:41;100273.50;;;9.80;82.84
72414;BME280;60995;52.154;4.498;2023-03-26T05:20:57;100271.16;;;9.94;82.57
72414;BME280;60995;52.154;4.498;2023-03-26T05:23:14;100269.78;;;9.81;82.62
72414;BME280;60995;52.154;4.498;2023-03-26T05:25:31;100269.78;;;9.81;82.75
72414;BME280;60995;52.154;4.498;2023-03-26T05:27:50;100267.13;;;10.08;82.02
72414;BME280;60995;52.154;4.498;2023-03-26T05:30:12;100258.16;;;9.98;82.35
72414;BME280;60995;52.154;4.498;2023-03-26T05:32:31;100259.47;;;9.94;81.75
72414;BME280;60995;52.154;4.498;2023-03-26T05:34:47;100253.53;;;9.81;82.56
72414;BME280;60995;52.154;4.498;2023-03-26T05:37:03;100247.69;;;9.75;82.49
72414;BME280;60995;52.154;4.498;2023-03-26T05:39:21;100242.13;;;9.87;82.10
72414;BME280;60995;52.154;4.498;2023-03-26T05:41:41;100236.97;;;9.84;82.54
72414;BME280;60995;52.154;4.498;2023-03-26T05:43:57;100235.88;;;9.76;82.70
72414;BME280;60995;52.154;4.498;2023-03-26T05:46:14;100234.78;;;9.97;82.42
72414;BME280;60995;52.154;4.498;2023-03-26T05:48:32;100238.91;;;10.01;82.08
72414;BME280;60995;52.154;4.498;2023-03-26T05:50:49;100232.53;;;9.83;82.35
72414;BME280;60995;52.154;4.498;2023-03-26T05:53:06;100239.59;;;10.03;82.90
72414;BME280;60995;52.154;4.498;2023-03-26T05:55:23;100234.97;;;9.86;82.63
72414;BME280;60995;52.154;4.498;2023-03-26T05:57:39;100235.97;;;9.85;82.62
72414;BME280;60995;52.154;4.498;2023-03-26T05:59:56;100236.13;;;9.83;83.32
72414;BME280;60995;52.154;4.498;2023-03-26T06:02:13;100233.69;;;9.90;82.92
72414;BME280;60995;52.154;4.498;2023-03-26T06:04:29;100228.66;;;9.95;83.23
72414;BME280;60995;52.154;4.498;2023-03-26T06:06:46;100220.44;;;9.87;83.26
72414;BME280;60995;52.154;4.498;2023-03-26T06:09:03;100233.69;;;9.90;83.08
72414;BME280;60995;52.154;4.498;2023-03-26T06:11:20;100227.03;;;9.65;83.57
72414;BME280;60995;52.154;4.498;2023-03-26T06:13:37;100222.25;;;9.96;82.63
72414;BME280;60995;52.154;4.498;2023-03-26T06:15:53;100220.38;;;9.97;82.88
72414;BME280;60995;52.154;4.498;2023-03-26T06:18:11;100228.16;;;9.82;83.45
72414;BME280;60995;52.154;4.498;2023-03-26T06:20:27;100219.63;;;9.76;83.43
72414;BME280;60995;52.154;4.498;2023-03-26T06:22:44;100214.13;;;9.96;83.25
72414;BME280;60995;52.154;4.498;2023-03-26T06:25:00;100216.41;;;9.91;83.34
72414;BME280;60995;52.154;4.498;2023-03-26T06:27:16;100216.44;;;9.81;83.60
72414;BME280;60995;52.154;4.498;2023-03-26T06:29:33;100212.50;;;9.66;84.30
72414;BME280;60995;52.154;4.498;2023-03-26T06:31:49;100209.19;;;9.82;83.86
72414;BME280;60995;52.154;4.498;2023-03-26T06:34:06;100212.69;;;9.92;83.37
72414;BME280;60995;52.154;4.498;2023-03-26T06:36:23;100210.53;;;9.96;83.63
72414;BME280;60995;52.154;4.498;2023-03-26T06:38:39;100211.59;;;9.85;83.80
72414;BME280;60995;52.154;4.498;2023-03-26T06:41:05;100215.41;;;9.92;83.88
72414;BME280;60995;52.154;4.498;2023-03-26T06:43:21;100207.00;;;9.95;83.84
72414;BME280;60995;52.154;4.498;2023-03-26T06:45:38;100213.09;;;9.97;83.77
72414;BME280;60995;52.154;4.498;2023-03-26T06:47:54;100212.16;;;9.79;84.40
72414;BME280;60995;52.154;4.498;2023-03-26T06:50:11;100215.59;;;9.81;83.97
72414;BME280;60995;52.154;4.498;2023-03-26T06:52:30;100210.56;;;9.48;84.99
72414;BME280;60995;52.154;4.498;2023-03-26T06:54:46;100218.78;;;9.66;84.91
72414;BME280;60995;52.154;4.498;2023-03-26T06:57:03;100221.91;;;9.62;84.76
72414;BME280;60995;52.154;4.498;2023-03-26T06:59:20;100213.63;;;9.73;84.83
72414;BME280;60995;52.154;4.498;2023-03-26T07:01:36;100220.44;;;9.77;84.63
72414;BME280;60995;52.154;4.498;2023-03-26T07:03:52;100227.19;;;9.63;84.71
72414;BME280;60995;52.154;4.498;2023-03-26T07:06:09;100225.63;;;9.60;85.20
72414;BME280;60995;52.154;4.498;2023-03-26T07:08:25;100221.28;;;9.87;84.46
72414;BME280;60995;52.154;4.498;2023-03-26T07:10:42;100221.03;;;9.81;84.79
72414;BME280;60995;52.154;4.498;2023-03-26T07:12:58;100220.72;;;9.84;84.35
72414;BME280;60995;52.154;4.498;2023-03-26T07:15:17;100223.16;;;9.87;84.13
72414;BME280;60995;52.154;4.498;2023-03-26T07:17:33;100223.19;;;10.05;84.20
72414;BME280;60995;52.154;4.498;2023-03-26T07:19:49;100223.53;;;9.92;84.52
72414;BME280;60995;52.154;4.498;2023-03-26T07:22:14;100214.06;;;10.06;83.79
72414;BME280;60995;52.154;4.498;2023-03-26T07:24:38;100209.78;;;10.03;83.23
72414;BME280;60995;52.154;4.498;2023-03-26T07:27:02;100222.00;;;9.80;84.38
72414;BME280;60995;52.154;4.498;2023-03-26T07:29:45;100218.72;;;9.86;84.45
72414;BME280;60995;52.154;4.498;2023-03-26T07:35:29;100225.03;;;9.76;84.98
72414;BME280;60995;52.154;4.498;2023-03-26T07:38:22;100215.59;;;9.81;84.57
72414;BME280;60995;52.154;4.498;2023-03-26T07:41:04;100213.63;;;9.73;85.18
72414;BME280;60995;52.154;4.498;2023-03-26T07:46:16;100209.19;;;9.72;85.03
72414;BME280;60995;52.154;4.498;2023-03-26T07:48:41;100217.38;;;9.62;85.46
72414;BME280;60995;52.154;4.498;2023-03-26T07:50:59;100218.41;;;9.41;86.04
72414;BME280;60995;52.154;4.498;2023-03-26T07:53:17;100205.00;;;9.50;85.64
72414;BME280;60995;52.154;4.498;2023-03-26T07:55:46;100208.94;;;9.65;85.16
72414;BME280;60995;52.154;4.498;2023-03-26T07:58:29;100211.97;;;9.62;85.04
72414;BME280;60995;52.154;4.498;2023-03-26T08:01:01;100212.91;;;9.71;84.74
72414;BME280;60995;52.154;4.498;2023-03-26T08:11:38;100209.00;;;9.46;86.28
72414;BME280;60995;52.154;4.498;2023-03-26T08:21:44;100215.72;;;9.32;85.59
72414;BME280;60995;52.154;4.498;2023-03-26T08:26:46;100209.69;;;9.48;85.54
72414;BME280;60995;52.154;4.498;2023-03-26T08:32:15;100215.66;;;9.61;85.33
72414;BME280;60995;52.154;4.498;2023-03-26T08:34:34;100217.06;;;9.65;85.34
72414;BME280;60995;52.154;4.498;2023-03-26T08:36:50;100215.84;;;9.87;85.34
72414;BME280;60995;52.154;4.498;2023-03-26T08:39:07;100226.50;;;9.61;84.53
72414;BME280;60995;52.154;4.498;2023-03-26T08:55:55;100226.28;;;9.15;83.28
72414;BME280;60995;52.154;4.498;2023-03-26T08:58:58;100217.56;;;9.21;83.12
72414;BME280;60995;52.154;4.498;2023-03-26T09:13:31;100231.06;;;9.41;82.66
72414;BME280;60995;52.154;4.498;2023-03-26T09:24:50;100236.94;;;9.93;80.38
72414;BME280;60995;52.154;4.498;2023-03-26T09:36:20;100240.78;;;9.43;81.48
72414;BME280;60995;52.154;4.498;2023-03-26T09:39:01;100245.50;;;9.41;81.43
72414;BME280;60995;52.154;4.498;2023-03-26T09:41:43;100249.88;;;9.42;80.92
72414;BME280;60995;52.154;4.498;2023-03-26T09:44:34;100242.91;;;9.50;81.30
72414;BME280;60995;52.154;4.498;2023-03-26T09:52:55;100258.72;;;9.44;79.58
72414;BME280;60995;52.154;4.498;2023-03-26T09:55:32;100249.56;;;9.65;79.36
72414;BME280;60995;52.154;4.498;2023-03-26T10:08:43;100275.38;;;9.69;77.70
72414;BME280;60995;52.154;4.498;2023-03-26T10:11:39;100275.47;;;9.77;77.09
72414;BME280;60995;52.154;4.498;2023-03-26T10:29:15;100288.63;;;9.63;74.89
72414;BME280;60995;52.154;4.498;2023-03-26T10:35:01;100299.34;;;10.12;72.94
72414;BME280;60995;52.154;4.498;2023-03-26T10:40:31;100296.84;;;10.00;71.24
72414;BME280;60995;52.154;4.498;2023-03-26T10:51:45;100313.38;;;9.97;70.15
72414;BME280;60995;52.154;4.498;2023-03-26T10:57:02;100313.78;;;10.02;69.30
72414;BME280;60995;52.154;4.498;2023-03-26T10:59:26;100324.69;;;10.30;70.65
72414;BME280;60995;52.154;4.498;2023-03-26T11:05:03;100327.00;;;9.68;71.61
72414;BME280;60995;52.154;4.498;2023-03-26T11:08:11;100318.78;;;9.97;70.54
72414;BME280;60995;52.154;4.498;2023-03-26T11:17:21;100330.88;;;10.60;67.75
72414;BME280;60995;52.154;4.498;2023-03-26T11:23:35;100341.00;;;10.86;66.10
72414;BME280;60995;52.154;4.498;2023-03-26T11:30:47;100351.63;;;10.79;64.66
72414;BME280;60995;52.154;4.498;2023-03-26T11:33:19;100358.59;;;10.54;66.10
72414;BME280;60995;52.154;4.498;2023-03-26T11:35:45;100353.31;;;11.26;63.40
72414;BME280;60995;52.154;4.498;2023-03-26T11:38:18;100354.78;;;11.74;61.46
72414;BME280;60995;52.154;4.498;2023-03-26T11:40:41;100369.19;;;11.49;61.79
72414;BME280;60995;52.154;4.498;2023-03-26T11:43:07;100366.59;;;11.83;61.48
72414;BME280;60995;52.154;4.498;2023-03-26T11:45:30;100362.56;;;11.15;61.70
72414;BME280;60995;52.154;4.498;2023-03-26T11:47:54;100361.75;;;11.05;62.71
72414;BME280;60995;52.154;4.498;2023-03-26T11:50:20;100375.06;;;11.26;62.11
72414;BME280;60995;52.154;4.498;2023-03-26T11:52:43;100366.53;;;11.39;61.90
72414;BME280;60995;52.154;4.498;2023-03-26T11:54:59;100374.91;;;11.46;60.85
72414;BME280;60995;52.154;4.498;2023-03-26T11:57:21;100376.09;;;10.97;62.76
72414;BME280;60995;52.154;4.498;2023-03-26T12:02:41;100386.34;;;11.49;61.04
72414;BME280;60995;52.154;4.498;2023-03-26T12:07:44;100385.50;;;11.67;58.60
72414;BME280;60995;52.154;4.498;2023-03-26T12:12:55;100402.91;;;12.45;56.33
72414;BME280;60995;52.154;4.498;2023-03-26T12:15:19;100395.47;;;12.47;55.83
72414;BME280;60995;52.154;4.498;2023-03-26T12:17:38;100401.81;;;12.90;56.20
72414;BME280;60995;52.154;4.498;2023-03-26T12:22:39;100402.25;;;13.20;54.13
72414;BME280;60995;52.154;4.498;2023-03-26T12:25:22;100399.34;;;12.79;54.99
72414;BME280;60995;52.154;4.498;2023-03-26T12:30:21;100402.78;;;12.81;55.24
72414;BME280;60995;52.154;4.498;2023-03-26T12:32:40;100414.78;;;13.04;54.27
72414;BME280;60995;52.154;4.498;2023-03-26T12:35:09;100415.28;;;12.65;55.03
72414;BME280;60995;52.154;4.498;2023-03-26T12:40:04;100430.25;;;12.61;53.93
72414;BME280;60995;52.154;4.498;2023-03-26T12:42:31;100422.47;;;12.74;53.47
72414;BME280;60995;52.154;4.498;2023-03-26T12:44:51;100427.31;;;13.23;52.72
72414;BME280;60995;52.154;4.498;2023-03-26T12:47:36;100425.22;;;13.17;52.09
72414;BME280;60995;52.154;4.498;2023-03-26T12:49:54;100438.31;;;13.14;52.52
72414;BME280;60995;52.154;4.498;2023-03-26T13:00:59;100455.84;;;13.11;51.46
72414;BME280;60995;52.154;4.498;2023-03-26T13:03:40;100446.75;;;12.94;51.76
72414;BME280;60995;52.154;4.498;2023-03-26T13:06:13;100459.69;;;12.92;52.11
72414;BME280;60995;52.154;4.498;2023-03-26T13:19:39;100455.91;;;12.93;51.09
72414;BME280;60995;52.154;4.498;2023-03-26T13:30:19;100463.31;;;12.74;50.99
72414;BME280;60995;52.154;4.498;2023-03-26T13:35:37;100476.53;;;12.96;50.46
72414;BME280;60995;52.154;4.498;2023-03-26T13:46:40;100483.72;;;12.70;50.13
72414;BME280;60995;52.154;4.498;2023-03-26T13:49:07;100481.38;;;12.76;49.83
72414;BME280;60995;52.154;4.498;2023-03-26T13:57:04;100489.69;;;13.00;49.46
72414;BME280;60995;52.154;4.498;2023-03-26T14:00:21;100499.72;;;12.73;50.34
72414;BME280;60995;52.154;4.498;2023-03-26T14:02:48;100511.31;;;12.31;50.83
72414;BME280;60995;52.154;4.498;2023-03-26T14:05:34;100505.38;;;12.54;50.72
72414;BME280;60995;52.154;4.498;2023-03-26T14:08:04;100509.50;;;12.84;49.55
72414;BME280;60995;52.154;4.498;2023-03-26T14:10:34;100506.94;;;12.83;49.52
72414;BME280;60995;52.154;4.498;2023-03-26T14:13:03;100516.97;;;12.38;49.76
72414;BME280;60995;52.154;4.498;2023-03-26T14:15:45;100522.81;;;12.25;50.26
72414;BME280;60995;52.154;4.498;2023-03-26T14:26:44;100553.59;;;11.62;50.11
72414;BME280;60995;52.154;4.498;2023-03-26T14:32:05;100548.84;;;11.64;49.81
72414;BME280;60995;52.154;4.498;2023-03-26T14:34:39;100543.69;;;11.88;50.19
72414;BME280;60995;52.154;4.498;2023-03-26T14:53:28;100579.84;;;10.86;51.07
72414;BME280;60995;52.154;4.498;2023-03-26T15:01:17;100598.13;;;11.03;49.61
72414;BME280;60995;52.154;4.498;2023-03-26T15:04:02;100601.59;;;10.47;51.28
72414;BME280;60995;52.154;4.498;2023-03-26T15:06:55;100594.19;;;10.49;50.54
72414;BME280;60995;52.154;4.498;2023-03-26T15:16:03;100624.69;;;11.00;50.91
72414;BME280;60995;52.154;4.498;2023-03-26T15:38:13;100670.94;;;10.30;50.28
72414;BME280;60995;52.154;4.498;2023-03-26T15:41:24;100689.28;;;10.47;49.26
72414;BME280;60995;52.154;4.498;2023-03-26T15:49:18;100690.34;;;10.35;48.83
72414;BME280;60995;52.154;4.498;2023-03-26T15:51:57;100700.06;;;10.27;48.02
72414;BME280;60995;52.154;4.498;2023-03-26T15:54:31;100705.97;;;10.12;48.62
72414;BME280;60995;52.154;4.498;2023-03-26T16:05:38;100724.78;;;9.72;48.89
72414;BME280;60995;52.154;4.498;2023-03-26T16:08:21;100740.88;;;9.64;49.14
72414;BME280;60995;52.154;4.498;2023-03-26T16:10:50;100750.16;;;9.92;49.19
72414;BME280;60995;52.154;4.498;2023-03-26T16:13:26;100752.09;;;9.81;49.26
72414;BME280;60995;52.154;4.498;2023-03-26T16:18:29;100760.13;;;9.92;49.45
72414;BME280;60995;52.154;4.498;2023-03-26T16:20:53;100782.22;;;9.45;50.42
72414;BME280;60995;52.154;4.498;2023-03-26T16:28:31;100792.81;;;9.27;51.27
72414;BME280;60995;52.154;4.498;2023-03-26T16:33:46;100806.28;;;9.06;51.72
72414;BME280;60995;52.154;4.498;2023-03-26T16:41:23;100817.56;;;9.22;51.62
72414;BME280;60995;52.154;4.498;2023-03-26T16:49:44;100826.28;;;9.26;51.74
72414;BME280;60995;52.154;4.498;2023-03-26T16:54:49;100836.38;;;9.24;50.57
72414;BME280;60995;52.154;4.498;2023-03-26T17:00:19;100855.31;;;9.24;49.75
72414;BME280;60995;52.154;4.498;2023-03-26T17:03:23;100850.47;;;9.06;49.31
72414;BME280;60995;52.154;4.498;2023-03-26T17:11:02;100864.53;;;8.89;48.92
72414;BME280;60995;52.154;4.498;2023-03-26T17:19:05;100891.63;;;8.66;49.63
72414;BME280;60995;52.154;4.498;2023-03-26T17:35:14;100927.13;;;8.61;50.83
72414;BME280;60995;52.154;4.498;2023-03-26T17:37:56;100921.50;;;8.65;51.03
72414;BME280;60995;52.154;4.498;2023-03-26T17:40:30;100931.09;;;8.46;51.71
72414;BME280;60995;52.154;4.498;2023-03-26T17:43:11;100944.72;;;8.56;52.34
72414;BME280;60995;52.154;4.498;2023-03-26T17:46:47;100940.25;;;8.32;53.09
72414;BME280;60995;52.154;4.498;2023-03-26T17:49:23;100951.06;;;8.32;53.29
72414;BME280;60995;52.154;4.498;2023-03-26T17:54:40;100967.50;;;8.29;52.40
72414;BME280;60995;52.154;4.498;2023-03-26T17:57:10;100976.38;;;8.31;52.47
72414;BME280;60995;52.154;4.498;2023-03-26T17:59:49;100992.53;;;8.20;53.59
72414;BME280;60995;52.154;4.498;2023-03-26T18:02:17;100984.84;;;7.91;53.44
72414;BME280;60995;52.154;4.498;2023-03-26T18:04:39;100997.63;;;8.00;53.09
72414;BME280;60995;52.154;4.498;2023-03-26T18:14:18;101021.00;;;8.01;52.84
72414;BME280;60995;52.154;4.498;2023-03-26T18:16:43;101029.34;;;7.98;52.97
72414;BME280;60995;52.154;4.498;2023-03-26T18:19:12;101021.69;;;7.92;53.13
72414;BME280;60995;52.154;4.498;2023-03-26T18:21:38;101029.28;;;7.87;53.22
72414;BME280;60995;52.154;4.498;2023-03-26T18:23:56;101039.00;;;7.89;53.50
72414;BME280;60995;52.154;4.498;2023-03-26T18:26:18;101038.41;;;7.97;53.28
72414;BME280;60995;52.154;4.498;2023-03-26T18:28:43;101042.44;;;7.91;53.18
72414;BME280;60995;52.154;4.498;2023-03-26T18:31:24;101052.91;;;7.72;53.70
72414;BME280;60995;52.154;4.498;2023-03-26T18:33:44;101047.38;;;7.73;53.67